Adelaide, South Australia

7:06 AM ACDT on October 24, 2014 (GMT +1030)
West Beach | Change Station
CLOSE
Current Station
Personal Weather Station
Location: West Beach, SOUTH AUSTRALIA
Elevation: 26 ft
Nearby Weather Stations

Elev 26 ft 34.94 °S, 138.51 °E | Updated 1 minute ago

Clear
Clear
57.9 °F
Feels Like 57.9 °F
N
0.0
Wind Variable Wind from East
Gusts 0.7 mph

Today
High -- | Low -- °F
--% Chance of Precip.
Yesterday
High -- | Low -- °F
Precip. -- in
6:23 AM 7:37 PM
Waning Crescent, 0% visible
Pressure 29.92 in
Visibility -9999.0 miles
Clouds
Dew Point 56 °F
Humidity 93%
Rainfall 0.00 in
Snow Depth Not available.
UV Not available.
Pollen Not available.
Air Quality Not available.
Flu Activity Not available.
METAR YPAD 232000Z 01004KT CAVOK 15/13 Q1013 RMK 4AC150 NOSIG

More Conditions Fewer Conditions

Pressure 29.92 in
Visibility -9999.0 miles
Clouds
Dew Point 56 °F
Humidity 93%
Rainfall 0.00 in
Snow Depth Not available.
UV Not available.
Pollen Not available.
Air Quality Not available.
Flu Activity Not available.
METAR YPAD 232000Z 01004KT CAVOK 15/13 Q1013 RMK 4AC150 NOSIG

More Conditions Fewer Conditions

10-Day Weather Forecast

Almanac

Astronomy

Oct. 24, 2014 Rise Set
Actual Time 6:23 AM ACDT 7:37 PM ACDT
Civil Twilight 5:56 AM ACDT 8:04 PM ACDT
Nautical Twilight 5:25 AM ACDT 8:35 PM ACDT
Astronomical Twilight 4:52 AM ACDT 9:08 PM ACDT
Moon 6:29 AM ACDT (10/24) 7:58 PM ACDT (10/24)
Length of Visible Light 14h 07m
Length of Day
13h 14m
Tomorrow will be 2m 4s longer.
Waning Crescent, 0% of the Moon is Illuminated
Oct 23
Waning Crescent
Oct 23
New
Oct 30
First Quarter
Nov 6
Full
Nov 14
Last Quarter

Yesterday's Extremes

Country Highs Country Lows

Community

WunderPhotos

Upload Photos

1,764,361 photos uploaded!

WunderBlogs® & News

By Dr. Jeff Masters
Director of Meteorology, Weather Underground
By Kari Strenfel
Meteorologist, Weather Underground
By Christopher C. Burt
Weather Historian, Weather Underground
October 23, 2014
October 23, 2014
October 23, 2014

Nearby

Snow Depth

Not available.

Earthquake Activity

City Distance Mag. Time & Date
No recent earthquake activity has been reported nearby.
Minimum magnitude displayed is 2.5.

Coastal Water Temperatures

Place Temperature
No Stations Reporting

Nearby Weather Stations